Time;durP1;ratioP1;P1;durP2;ratioP2;P2;SDS_P1;SDS_P2;PMS_P1;PMS_P2;Temp;Humidity;BMP_temperature;BMP_pressure;BME280_temperature;BME280_humidity;BME280_pressure;Samples;Min_cycle;Max_cycle;Signal;HPM_P1;HPM_P2
2022/09/19 00:00:42;;;;;;;20.92;4.53;;;;;;;8.95;100.00;101586.06;5060547;28;20060;-69
2022/09/19 00:03:08;;;;;;;18.13;3.60;;;;;;;8.99;100.00;101587.66;5057689;28;20036;-67
2022/09/19 00:05:38;;;;;;;31.58;4.45;;;;;;;9.13;100.00;101586.16;5056044;28;20036;-70
2022/09/19 00:08:04;;;;;;;21.33;3.55;;;;;;;8.99;100.00;101590.34;5058980;28;20476;-69
2022/09/19 00:10:29;;;;;;;20.95;3.22;;;;;;;9.01;100.00;101585.78;5040151;28;20043;-69
2022/09/19 00:12:55;;;;;;;16.52;2.92;;;;;;;8.97;100.00;101586.00;5061062;28;20048;-68
2022/09/19 00:15:22;;;;;;;20.40;3.33;;;;;;;8.95;100.00;101588.72;5059970;28;20040;-69
2022/09/19 00:17:49;;;;;;;18.00;2.78;;;;;;;8.90;100.00;101587.22;5050529;28;20063;-70
2022/09/19 00:20:15;;;;;;;22.42;3.58;;;;;;;9.04;100.00;101587.47;5060889;28;20037;-68
2022/09/19 00:24:45;;;;;;;12.55;3.53;;;;;;;8.99;100.00;101587.66;5061217;28;20058;-67
2022/09/19 00:25:28;;;;;;;23.80;3.17;;;;;;;9.05;100.00;101595.38;5057005;28;20040;-68
2022/09/19 00:27:54;;;;;;;26.10;3.97;;;;;;;9.05;100.00;101592.72;5063103;28;20124;-69
2022/09/19 00:30:20;;;;;;;20.25;3.17;;;;;;;9.07;100.00;101592.63;5062324;28;20115;-69
2022/09/19 00:32:46;;;;;;;16.52;3.00;;;;;;;9.13;100.00;101587.03;5044593;28;20048;-69
2022/09/19 00:35:13;;;;;;;23.52;2.80;;;;;;;9.15;100.00;101594.97;5040519;28;20036;-69
2022/09/19 00:37:39;;;;;;;26.23;2.88;;;;;;;9.13;100.00;101597.66;5060461;28;20526;-69
2022/09/19 00:40:05;;;;;;;22.30;4.20;;;;;;;9.10;100.00;101600.50;5062758;28;20032;-69
2022/09/19 00:42:30;;;;;;;17.30;2.80;;;;;;;9.06;100.00;101607.72;5025793;28;20040;-68
2022/09/19 00:45:04;;;;;;;12.90;2.55;;;;;;;9.04;100.00;101603.44;5060399;28;20039;-68
2022/09/19 00:47:37;;;;;;;18.23;2.50;;;;;;;9.03;100.00;101607.00;5061345;28;20036;-69
2022/09/19 00:50:09;;;;;;;12.90;2.97;;;;;;;9.07;100.00;101597.94;5040270;28;20032;-68
2022/09/19 00:52:42;;;;;;;24.33;3.60;;;;;;;9.06;100.00;101605.06;5040629;28;20067;-68
2022/09/19 00:55:07;;;;;;;24.20;3.13;;;;;;;9.12;100.00;101608.38;5034553;28;20041;-68
2022/09/19 00:57:47;;;;;;;19.98;2.58;;;;;;;9.19;100.00;101607.19;5060607;28;20052;-67
2022/09/19 01:00:13;;;;;;;24.95;2.88;;;;;;;9.17;100.00;101617.88;5051036;28;20037;-69
2022/09/19 01:02:38;;;;;;;17.63;2.63;;;;;;;9.19;100.00;101616.03;5055196;28;20036;-69
2022/09/19 01:05:06;;;;;;;18.77;3.22;;;;;;;9.19;100.00;101618.69;5061021;28;20451;-68
2022/09/19 01:07:41;;;;;;;11.77;2.40;;;;;;;9.18;100.00;101614.28;5041715;28;20743;-69
2022/09/19 01:10:28;;;;;;;19.65;3.40;;;;;;;9.25;100.00;101621.09;5037769;28;20033;-69
2022/09/19 01:13:22;;;;;;;21.42;2.30;;;;;;;9.27;100.00;101615.69;5041666;28;20040;-69
2022/09/19 01:16:05;;;;;;;19.00;3.13;;;;;;;9.22;100.00;101620.34;5056004;28;20044;-69
2022/09/19 01:18:52;;;;;;;16.17;3.17;;;;;;;9.22;100.00;101625.66;5060291;28;20033;-69
2022/09/19 01:21:38;;;;;;;20.15;3.13;;;;;;;9.30;100.00;101627.06;5042974;28;20538;-69
2022/09/19 01:24:10;;;;;;;24.63;3.03;;;;;;;9.41;100.00;101623.91;5039716;28;20072;-69
2022/09/19 01:27:09;;;;;;;14.05;2.00;;;;;;;9.45;100.00;101629.97;5042216;28;20114;-69
2022/09/19 01:29:57;;;;;;;13.95;2.58;;;;;;;9.50;100.00;101628.81;5060796;28;20045;-68
2022/09/19 01:32:30;;;;;;;22.23;3.20;;;;;;;9.43;100.00;101635.31;5039344;28;20041;-69
2022/09/19 01:35:02;;;;;;;12.18;2.08;;;;;;;9.41;100.00;101634.56;5050104;28;20135;-68
2022/09/19 01:37:36;;;;;;;16.90;3.03;;;;;;;9.46;100.00;101632.53;5057697;28;20082;-68
2022/09/19 01:40:04;;;;;;;11.05;2.88;;;;;;;9.44;100.00;101638.84;5060314;28;20106;-69
2022/09/19 01:42:33;;;;;;;13.32;2.75;;;;;;;9.36;100.00;101636.56;5036306;28;20825;-70
2022/09/19 01:44:59;;;;;;;12.30;2.38;;;;;;;9.30;100.00;101642.16;5038202;28;20047;-70
2022/09/19 01:47:52;;;;;;;14.02;3.55;;;;;;;9.31;100.00;101642.09;5037578;28;20032;-68
2022/09/19 01:50:53;;;;;;;14.65;3.20;;;;;;;9.26;100.00;101643.22;5042303;28;20044;-69
2022/09/19 01:53:46;;;;;;;19.55;3.35;;;;;;;9.24;100.00;101642.44;5042676;28;20062;-69
2022/09/19 01:57:08;;;;;;;14.45;2.42;;;;;;;9.21;100.00;101642.56;5049691;28;20117;-69
2022/09/19 02:00:02;;;;;;;17.75;3.42;;;;;;;9.19;100.00;101641.78;5056621;28;20117;-69
2022/09/19 02:02:35;;;;;;;16.73;2.70;;;;;;;9.24;100.00;101639.78;5062088;28;20129;-70
2022/09/19 02:05:13;;;;;;;13.95;4.28;;;;;;;9.19;100.00;101642.66;5045282;28;20033;-68
2022/09/19 02:08:21;;;;;;;17.95;3.33;;;;;;;9.13;100.00;101642.91;5041957;28;20436;-69
2022/09/19 02:10:56;;;;;;;17.80;2.95;;;;;;;9.11;100.00;101650.09;5035940;28;20045;-68
2022/09/19 02:13:27;;;;;;;20.23;4.05;;;;;;;9.11;100.00;101644.78;5051978;28;20114;-69
2022/09/19 02:16:12;;;;;;;19.13;2.47;;;;;;;9.06;100.00;101646.78;5034732;28;20037;-69
2022/09/19 02:18:48;;;;;;;16.17;2.35;;;;;;;9.07;100.00;101643.19;5058182;28;20040;-70
2022/09/19 02:21:21;;;;;;;11.65;2.55;;;;;;;9.09;100.00;101644.00;5039154;28;20144;-69
2022/09/19 02:23:51;;;;;;;15.60;2.40;;;;;;;9.11;100.00;101647.44;5061466;28;20552;-69
2022/09/19 02:26:21;;;;;;;11.88;2.75;;;;;;;9.07;100.00;101644.03;5038890;28;20611;-68
2022/09/19 02:28:57;;;;;;;16.15;2.33;;;;;;;9.06;100.00;101641.47;5029832;28;20044;-69
2022/09/19 02:31:26;;;;;;;16.67;3.25;;;;;;;9.03;100.00;101654.88;5040908;28;20127;-68
2022/09/19 02:33:56;;;;;;;21.63;2.50;;;;;;;9.00;100.00;101653.22;5042544;28;20060;-69
2022/09/19 02:36:27;;;;;;;17.67;2.42;;;;;;;8.92;100.00;101651.84;5040359;28;20116;-68
2022/09/19 02:39:08;;;;;;;16.67;3.17;;;;;;;9.15;100.00;101656.16;5042193;28;20036;-68
2022/09/19 02:42:08;;;;;;;13.93;3.60;;;;;;;9.11;100.00;101652.75;5036075;28;20045;-69
2022/09/19 02:45:06;;;;;;;14.32;1.95;;;;;;;9.19;100.00;101658.63;5041444;28;20702;-69
2022/09/19 02:47:55;;;;;;;17.15;2.25;;;;;;;9.27;100.00;101655.59;5038992;28;20028;-70
2022/09/19 02:50:39;;;;;;;16.67;3.33;;;;;;;9.26;100.00;101656.53;5040581;28;20040;-69
2022/09/19 02:53:11;;;;;;;16.92;2.45;;;;;;;9.16;100.00;101653.41;5035576;28;20083;-70
2022/09/19 02:55:49;;;;;;;13.60;3.78;;;;;;;9.17;100.00;101651.63;5042572;28;20040;-68
2022/09/19 02:58:16;;;;;;;19.40;3.20;;;;;;;9.15;100.00;101661.47;5062415;28;20770;-69
2022/09/19 03:00:52;;;;;;;10.75;2.22;;;;;;;9.23;100.00;101665.50;5059762;28;20063;-69
2022/09/19 03:06:21;;;;;;;23.15;1.95;;;;;;;9.24;100.00;101661.06;5038097;28;20080;-69
2022/09/19 03:08:51;;;;;;;18.90;4.45;;;;;;;9.20;100.00;101654.16;5055872;28;20076;-69
2022/09/19 03:11:19;;;;;;;14.30;2.65;;;;;;;9.16;100.00;101664.06;5026266;28;20662;-69
2022/09/19 03:13:45;;;;;;;12.77;2.80;;;;;;;9.20;100.00;101655.03;5039343;28;20080;-70
2022/09/19 03:16:21;;;;;;;21.55;3.28;;;;;;;9.15;100.00;101656.16;5040029;28;20033;-70
2022/09/19 03:18:48;;;;;;;12.30;2.53;;;;;;;9.12;100.00;101654.47;5035758;28;20439;-70
2022/09/19 03:21:20;;;;;;;23.02;3.28;;;;;;;9.22;100.00;101660.25;5042496;28;20135;-68
2022/09/19 03:23:50;;;;;;;17.83;2.92;;;;;;;9.15;100.00;101659.69;5043558;28;20105;-69
2022/09/19 03:26:30;;;;;;;12.68;2.58;;;;;;;9.15;100.00;101658.81;5043767;28;20048;-70
2022/09/19 03:28:55;;;;;;;11.80;2.83;;;;;;;9.13;100.00;101669.50;5043686;28;20071;-69
2022/09/19 03:31:23;;;;;;;18.55;2.78;;;;;;;9.18;100.00;101659.53;5034840;28;20465;-70
2022/09/19 03:33:51;;;;;;;13.30;3.17;;;;;;;9.18;100.00;101669.31;5061301;28;20068;-69
2022/09/19 03:36:18;;;;;;;20.35;2.95;;;;;;;9.08;100.00;101669.72;5026872;28;20029;-70
2022/09/19 03:38:44;;;;;;;14.98;2.78;;;;;;;9.05;100.00;101669.88;5061751;28;20090;-69
2022/09/19 03:41:14;;;;;;;20.50;3.58;;;;;;;9.10;100.00;101671.47;5039238;28;20083;-70
2022/09/19 03:43:44;;;;;;;42.40;3.72;;;;;;;9.15;100.00;101672.13;5038393;28;20461;-69
2022/09/19 03:46:14;;;;;;;19.10;2.80;;;;;;;9.12;100.00;101673.09;5055086;28;20044;-70
2022/09/19 03:48:44;;;;;;;15.48;2.50;;;;;;;9.11;100.00;101673.19;5043738;28;20040;-68
2022/09/19 03:51:14;;;;;;;22.40;4.60;;;;;;;9.04;100.00;101680.59;5040550;28;20028;-68
2022/09/19 03:53:42;;;;;;;17.60;3.28;;;;;;;9.04;100.00;101678.78;5041559;28;20040;-69
2022/09/19 03:56:09;;;;;;;17.30;2.70;;;;;;;8.98;100.00;101680.81;5056463;28;20051;-67
2022/09/19 03:58:36;;;;;;;14.82;3.30;;;;;;;9.04;100.00;101683.25;5042114;28;20226;-70
2022/09/19 04:01:04;;;;;;;20.48;3.50;;;;;;;9.01;100.00;101681.56;5026523;28;20791;-69
2022/09/19 04:03:30;;;;;;;24.98;2.92;;;;;;;8.98;100.00;101680.81;5036750;28;20032;-69
2022/09/19 04:05:56;;;;;;;22.10;2.88;;;;;;;8.97;100.00;101679.09;5059984;28;20055;-69
2022/09/19 04:08:22;;;;;;;16.17;2.78;;;;;;;8.89;100.00;101683.91;5038541;28;20496;-69
2022/09/19 04:10:49;;;;;;;21.02;2.95;;;;;;;8.89;100.00;101691.88;5042291;28;20032;-69
2022/09/19 04:13:14;;;;;;;14.13;3.30;;;;;;;8.97;100.00;101689.75;5042752;28;20405;-69
2022/09/19 04:15:41;;;;;;;16.63;4.10;;;;;;;8.90;100.00;101685.63;5041893;28;20036;-69
2022/09/19 04:18:09;;;;;;;23.33;4.05;;;;;;;8.81;100.00;101685.06;5035402;28;20040;-69
2022/09/19 04:20:38;;;;;;;21.55;3.42;;;;;;;8.76;100.00;101694.19;5042246;28;20044;-69
2022/09/19 04:23:36;;;;;;;16.33;2.40;;;;;;;8.79;100.00;101697.59;4977813;28;20065;-70
2022/09/19 04:26:13;;;;;;;10.55;2.33;;;;;;;8.82;100.00;101697.44;4962324;28;20050;-67
2022/09/19 04:28:41;;;;;;;18.25;2.53;;;;;;;8.84;100.00;101693.88;4974325;28;20130;-69
2022/09/19 04:31:09;;;;;;;23.20;3.42;;;;;;;8.86;100.00;101694.66;4978396;28;20257;-70
2022/09/19 04:33:36;;;;;;;12.00;2.38;;;;;;;8.92;100.00;101702.38;4962156;28;20411;-70
2022/09/19 04:36:05;;;;;;;23.63;3.35;;;;;;;8.87;100.00;101702.56;4977543;28;20507;-69
2022/09/19 04:38:33;;;;;;;14.60;2.55;;;;;;;8.94;100.00;101701.38;4977792;28;20129;-69
2022/09/19 04:41:00;;;;;;;17.55;3.28;;;;;;;9.03;100.00;101705.44;4976857;28;20156;-69
2022/09/19 04:43:28;;;;;;;18.98;4.63;;;;;;;9.17;100.00;101716.34;4966772;28;20064;-68
2022/09/19 04:46:01;;;;;;;17.17;2.50;;;;;;;9.21;100.00;101712.63;4940455;28;20748;-69
2022/09/19 04:48:33;;;;;;;14.55;2.35;;;;;;;9.16;100.00;101714.63;4956272;28;20742;-69
2022/09/19 04:50:59;;;;;;;15.90;3.22;;;;;;;9.12;100.00;101720.13;4966083;28;20141;-68
2022/09/19 04:53:27;;;;;;;17.15;2.47;;;;;;;9.06;100.00;101716.81;4978478;28;20092;-68
2022/09/19 04:55:55;;;;;;;21.70;4.47;;;;;;;9.19;100.00;101716.31;4978072;28;20042;-70
2022/09/19 04:58:21;;;;;;;15.15;2.40;;;;;;;9.08;100.00;101722.91;4972835;28;20048;-69
2022/09/19 05:00:53;;;;;;;16.70;2.85;;;;;;;9.17;100.00;101723.47;5042280;28;20132;-68
2022/09/19 05:03:20;;;;;;;18.70;3.00;;;;;;;9.36;100.00;101724.41;5044750;28;20064;-68
2022/09/19 05:05:50;;;;;;;12.23;1.90;;;;;;;9.39;100.00;101726.94;5043922;28;20657;-69
2022/09/19 05:08:26;;;;;;;17.52;3.03;;;;;;;9.42;100.00;101715.28;5040455;28;20083;-69
2022/09/19 05:10:54;;;;;;;8.57;2.13;;;;;;;9.46;100.00;101725.72;5035473;28;20481;-68
2022/09/19 05:13:28;;;;;;;16.35;3.28;;;;;;;9.40;100.00;101728.66;5041562;28;20555;-68
2022/09/19 05:15:54;;;;;;;15.07;2.15;;;;;;;9.41;100.00;101725.06;5041495;28;20068;-69
2022/09/19 05:18:21;;;;;;;17.35;3.75;;;;;;;9.43;100.00;101725.84;5059732;28;20087;-69
2022/09/19 05:20:52;;;;;;;8.57;1.95;;;;;;;9.44;100.00;101735.59;5040178;28;20102;-69
2022/09/19 05:23:19;;;;;;;22.63;2.50;;;;;;;9.47;100.00;101726.56;5039856;28;20104;-69
2022/09/19 05:25:44;;;;;;;11.00;2.60;;;;;;;9.48;100.00;101734.50;5040866;28;20064;-68
2022/09/19 05:28:10;;;;;;;18.30;2.20;;;;;;;9.52;100.00;101735.22;5058809;28;20083;-70
2022/09/19 05:30:44;;;;;;;23.30;2.45;;;;;;;9.62;100.00;101738.34;5043608;28;20107;-69
2022/09/19 05:33:11;;;;;;;16.08;2.35;;;;;;;9.54;100.00;101736.91;5060596;28;20043;-70
2022/09/19 05:35:40;;;;;;;8.98;2.13;;;;;;;9.67;100.00;101741.66;5044906;28;20044;-70
2022/09/19 05:38:22;;;;;;;24.15;3.35;;;;;;;9.81;100.00;101748.09;5058216;28;20143;-70
2022/09/19 05:40:58;;;;;;;10.90;1.88;;;;;;;9.88;100.00;101747.81;5043522;28;20041;-69
2022/09/19 05:43:50;;;;;;;;;;;;;;;9.84;100.00;101741.78;5042468;28;20032;-69
2022/09/19 05:46:15;;;;;;;13.32;1.90;;;;;;;9.93;100.00;101753.78;5045228;28;19924;-70
2022/09/19 05:48:47;;;;;;;14.10;2.42;;;;;;;10.10;100.00;101757.41;5043975;28;20051;-67
2022/09/19 05:51:12;;;;;;;14.70;2.00;;;;;;;10.18;100.00;101758.84;5043367;28;20028;-69
2022/09/19 05:53:53;;;;;;;11.63;2.38;;;;;;;10.34;100.00;101757.19;5041741;28;20408;-70
2022/09/19 05:56:40;;;;;;;9.10;2.03;;;;;;;10.43;100.00;101750.56;5043218;28;20097;-70
2022/09/19 05:59:08;;;;;;;12.68;2.03;;;;;;;10.44;100.00;101752.28;5041042;28;20047;-68
2022/09/19 06:01:37;;;;;;;12.20;2.47;;;;;;;10.59;100.00;101748.88;5037401;28;20052;-75
2022/09/19 06:04:04;;;;;;;15.60;2.83;;;;;;;10.67;100.00;101751.19;5047194;28;20066;-69
2022/09/19 06:06:35;;;;;;;15.55;1.90;;;;;;;10.78;100.00;101756.84;5044487;28;20037;-70
2022/09/19 06:09:02;;;;;;;16.60;2.75;;;;;;;10.88;100.00;101758.13;5029573;28;20167;-68
2022/09/19 06:11:32;;;;;;;11.43;1.52;;;;;;;10.95;100.00;101770.25;5043456;28;21146;-70
2022/09/19 06:14:18;;;;;;;10.85;2.50;;;;;;;10.96;100.00;101769.28;5046111;28;20028;-70
2022/09/19 06:16:49;;;;;;;16.77;2.72;;;;;;;10.96;100.00;101779.09;5038471;28;20045;-70
2022/09/19 06:19:33;;;;;;;23.00;2.47;;;;;;;10.93;100.00;101774.78;5059781;28;20802;-70
2022/09/19 06:22:12;;;;;;;11.77;2.30;;;;;;;11.04;100.00;101785.75;5038196;28;20033;-68
2022/09/19 06:24:40;;;;;;;16.67;2.20;;;;;;;11.09;100.00;101780.19;5043156;28;20041;-69
2022/09/19 06:27:06;;;;;;;9.05;1.98;;;;;;;11.11;100.00;101787.19;5042891;28;20091;-69
2022/09/19 06:29:33;;;;;;;9.00;1.83;;;;;;;11.39;100.00;101786.63;5045818;28;20066;-70
2022/09/19 06:32:19;;;;;;;8.95;2.35;;;;;;;11.83;100.00;101790.63;5043575;28;20085;-71
2022/09/19 06:34:46;;;;;;;14.75;3.10;;;;;;;12.01;100.00;101797.69;5064455;28;20075;-70
2022/09/19 06:37:12;;;;;;;10.43;2.80;;;;;;;12.16;100.00;101796.84;5045271;28;20113;-70
2022/09/19 06:39:38;;;;;;;14.38;2.40;;;;;;;12.21;100.00;101803.75;5045958;28;20050;-70
2022/09/19 06:42:25;;;;;;;11.38;2.00;;;;;;;12.36;100.00;101803.78;5031459;28;20059;-70
2022/09/19 06:45:27;;;;;;;7.35;1.73;;;;;;;12.41;100.00;101804.38;5042107;28;20103;-70
2022/09/19 06:47:59;;;;;;;8.70;1.70;;;;;;;12.33;100.00;101814.63;5037085;28;20065;-68
2022/09/19 06:50:48;;;;;;;13.63;2.80;;;;;;;12.23;100.00;101810.72;5040269;28;20434;-71
2022/09/19 06:53:17;;;;;;;9.25;1.80;;;;;;;12.10;100.00;101815.91;5042871;28;20033;-71
2022/09/19 06:55:43;;;;;;;10.27;1.95;;;;;;;12.20;100.00;101816.28;5040054;28;20148;-69
2022/09/19 06:58:15;;;;;;;10.60;2.42;;;;;;;12.31;100.00;101816.53;5043761;28;20076;-70
2022/09/19 07:00:44;;;;;;;13.93;2.22;;;;;;;12.53;100.00;101818.88;5033930;28;20068;-70
2022/09/19 07:03:13;;;;;;;9.20;1.90;;;;;;;12.30;100.00;101821.94;5042393;28;20032;-70
2022/09/19 07:05:45;;;;;;;10.68;2.50;;;;;;;12.30;100.00;101832.66;5044781;28;20059;-68
2022/09/19 07:08:24;;;;;;;9.82;2.00;;;;;;;12.34;100.00;101835.06;5042785;28;20071;-70
2022/09/19 07:10:52;;;;;;;15.30;2.08;;;;;;;12.58;100.00;101840.03;5038202;28;20055;-70
2022/09/19 07:13:17;;;;;;;8.30;2.30;;;;;;;12.50;100.00;101840.47;5057823;28;20786;-68
2022/09/19 07:15:49;;;;;;;21.33;3.65;;;;;;;12.61;100.00;101842.53;5042362;28;20552;-70
2022/09/19 07:18:15;;;;;;;13.57;2.17;;;;;;;12.67;100.00;101843.06;5040527;28;20035;-70
2022/09/19 07:20:43;;;;;;;19.67;2.70;;;;;;;12.74;100.00;101843.56;5043598;28;20047;-70
2022/09/19 07:23:19;;;;;;;11.40;1.90;;;;;;;12.72;100.00;101850.81;5061929;28;20098;-70
2022/09/19 07:25:58;;;;;;;18.48;1.95;;;;;;;12.75;100.00;101861.38;5042630;28;20059;-69
2022/09/19 07:28:23;;;;;;;11.15;1.77;;;;;;;12.96;100.00;101857.47;5050894;28;20044;-71
2022/09/19 07:30:51;;;;;;;9.52;1.75;;;;;;;12.93;100.00;101854.94;5042912;28;20187;-69
2022/09/19 07:33:23;;;;;;;19.15;3.30;;;;;;;12.99;100.00;101860.91;5044005;28;20075;-71
2022/09/19 07:35:51;;;;;;;15.00;2.45;;;;;;;13.33;100.00;101858.03;5062363;28;20455;-69
2022/09/19 07:38:19;;;;;;;12.65;2.88;;;;;;;13.39;100.00;101857.66;5039580;28;20033;-70
2022/09/19 07:41:00;;;;;;;8.15;2.42;;;;;;;13.25;100.00;101860.28;5041817;28;20037;-71
2022/09/19 07:43:30;;;;;;;21.05;2.90;;;;;;;13.38;100.00;101860.44;5056381;28;20029;-70
2022/09/19 07:46:14;;;;;;;7.85;2.28;;;;;;;13.70;100.00;101854.06;5061751;28;20404;-70
2022/09/19 07:48:59;;;;;;;4.22;1.75;;;;;;;13.52;100.00;101847.09;5035506;28;20708;-70
2022/09/19 07:51:43;;;;;;;8.00;2.10;;;;;;;13.56;100.00;101858.50;5062019;28;20069;-68
2022/09/19 07:54:08;;;;;;;6.38;1.90;;;;;;;13.46;100.00;101867.09;5059214;28;20258;-68
2022/09/19 07:56:34;;;;;;;12.55;1.65;;;;;;;13.57;100.00;101863.78;5043884;28;20842;-70
2022/09/19 07:59:01;;;;;;;15.82;2.92;;;;;;;13.58;100.00;101870.00;5042559;28;20764;-70
2022/09/19 08:01:35;;;;;;;11.95;2.55;;;;;;;13.69;100.00;101868.38;5062957;28;20045;-70
2022/09/19 08:04:07;;;;;;;12.00;2.20;;;;;;;13.61;100.00;101877.88;5042962;28;20071;-69
2022/09/19 08:06:55;;;;;;;12.90;2.20;;;;;;;13.68;100.00;101877.38;5033670;28;20073;-69
2022/09/19 08:09:20;;;;;;;12.38;2.33;;;;;;;13.63;100.00;101881.31;5044404;28;20028;-70
2022/09/19 08:12:06;;;;;;;6.38;1.80;;;;;;;13.46;100.00;101885.84;5040324;28;20087;-69
2022/09/19 08:14:37;;;;;;;16.95;2.90;;;;;;;13.61;100.00;101880.53;5038143;28;20036;-70
2022/09/19 08:17:03;;;;;;;9.32;2.78;;;;;;;13.83;100.00;101889.00;5043608;28;20047;-71
2022/09/19 08:19:29;;;;;;;15.23;2.67;;;;;;;13.90;100.00;101890.34;5037517;28;20037;-70
2022/09/19 08:21:56;;;;;;;14.82;2.40;;;;;;;13.70;100.00;101879.97;5034270;28;20683;-70
2022/09/19 08:24:22;;;;;;;10.80;2.33;;;;;;;13.99;100.00;101892.47;5040573;28;20036;-70
2022/09/19 08:26:50;;;;;;;14.68;3.25;;;;;;;14.20;100.00;101895.66;5040120;28;20037;-70
2022/09/19 08:29:16;;;;;;;7.22;1.88;;;;;;;14.32;100.00;101899.44;5037767;28;20056;-68
2022/09/19 08:31:51;;;;;;;10.43;2.05;;;;;;;14.53;100.00;101897.25;5039242;28;20067;-69
2022/09/19 08:34:17;;;;;;;10.05;2.13;;;;;;;14.94;100.00;101901.78;5037180;28;20405;-70
2022/09/19 08:36:43;;;;;;;14.60;1.88;;;;;;;15.15;100.00;101891.47;5043056;28;20036;-70
2022/09/19 08:39:08;;;;;;;22.00;2.50;;;;;;;15.40;100.00;101888.88;5043638;28;20098;-70
2022/09/19 08:41:55;;;;;;;12.07;2.80;;;;;;;15.45;100.00;101896.63;5038735;28;20033;-70
2022/09/19 08:44:38;;;;;;;15.90;1.95;;;;;;;15.45;100.00;101891.25;5023022;28;20036;-70
2022/09/19 08:47:13;;;;;;;10.03;2.03;;;;;;;15.48;99.74;101905.38;5040648;28;20847;-69
2022/09/19 08:49:51;;;;;;;14.93;1.98;;;;;;;15.19;100.00;101898.38;5041928;28;20040;-69
2022/09/19 08:52:28;;;;;;;11.70;3.20;;;;;;;15.16;100.00;101899.44;5057878;28;20041;-68
2022/09/19 08:54:57;;;;;;;18.17;3.15;;;;;;;15.12;100.00;101900.59;5039845;28;20096;-70
2022/09/19 08:57:41;;;;;;;12.13;1.95;;;;;;;15.51;100.00;101897.09;5042292;28;20437;-70
2022/09/19 09:00:19;;;;;;;17.58;4.32;;;;;;;15.79;100.00;101888.03;5034868;28;20408;-70
2022/09/19 09:03:01;;;;;;;6.35;2.25;;;;;;;15.83;100.00;101890.53;5041583;28;20032;-71
2022/09/19 09:05:41;;;;;;;8.73;1.75;;;;;;;15.54;99.62;101896.88;5034699;28;20406;-70
2022/09/19 09:08:22;;;;;;;12.05;1.80;;;;;;;15.84;97.84;101894.94;5038736;28;20110;-69
2022/09/19 09:11:37;;;;;;;10.88;1.38;;;;;;;16.05;96.70;101899.69;5056718;28;20117;-68
2022/09/19 09:14:36;;;;;;;8.02;1.90;;;;;;;15.99;98.12;101901.94;5051643;28;20123;-70
2022/09/19 09:17:33;;;;;;;17.52;1.70;;;;;;;16.22;95.76;101903.03;5056999;28;20040;-69
2022/09/19 09:20:24;;;;;;;8.68;1.88;;;;;;;16.36;94.23;101900.22;5041867;28;20032;-68
2022/09/19 09:23:15;;;;;;;10.00;1.17;;;;;;;16.46;91.20;101897.72;5040435;28;20129;-69
2022/09/19 09:26:09;;;;;;;5.35;1.30;;;;;;;16.45;92.45;101896.88;5054028;28;20033;-69
2022/09/19 09:28:57;;;;;;;11.00;1.67;;;;;;;16.41;94.21;101900.75;5035103;28;20099;-67
2022/09/19 09:32:15;;;;;;;12.30;1.70;;;;;;;17.08;86.44;101893.22;5021252;28;20738;-68
2022/09/19 09:34:56;;;;;;;7.97;1.27;;;;;;;17.45;83.68;101892.28;5019017;28;20037;-67
2022/09/19 09:37:29;;;;;;;6.85;1.70;;;;;;;17.86;84.50;101894.56;5040016;28;20028;-68
2022/09/19 09:40:13;;;;;;;7.20;1.45;;;;;;;16.89;81.73;101911.72;5019571;28;20037;-69
2022/09/19 09:42:41;;;;;;;8.02;1.65;;;;;;;16.02;86.50;101924.13;5039389;28;20071;-69
2022/09/19 09:45:34;;;;;;;9.18;1.70;;;;;;;12.63;100.00;101966.41;5042458;28;20044;-72
2022/09/19 09:48:20;;;;;;;2.38;0.88;;;;;;;11.70;100.00;101950.72;5057116;28;20033;-71
2022/09/19 09:50:56;;;;;;;2.13;0.50;;;;;;;12.15;100.00;101939.50;5034719;28;20045;-74
2022/09/19 09:53:40;;;;;;;0.80;0.80;;;;;;;12.35;100.00;101935.78;5057528;28;20036;-71
2022/09/19 09:56:17;;;;;;;2.25;0.60;;;;;;;12.46;100.00;101940.56;5052078;28;20043;-74
2022/09/19 09:59:09;;;;;;;6.43;1.02;;;;;;;12.81;100.00;101940.47;5037906;28;20052;-71
2022/09/19 10:05:05;;;;;;;3.30;1.15;;;;;;;13.39;100.00;101934.50;4949671;28;20891;-72
2022/09/19 10:07:36;;;;;;;4.72;1.67;;;;;;;13.61;100.00;101932.31;4957188;28;20078;-73
2022/09/19 10:10:12;;;;;;;3.60;1.30;;;;;;;13.58;100.00;101934.31;4957643;28;20045;-72
2022/09/19 10:12:55;;;;;;;6.97;1.75;;;;;;;13.69;100.00;101923.81;4941322;28;20469;-73
2022/09/19 10:15:24;;;;;;;5.32;1.55;;;;;;;13.90;100.00;101917.16;4951169;28;20134;-72
2022/09/19 10:18:18;;;;;;;4.93;1.23;;;;;;;14.32;100.00;101923.56;4954555;28;20057;-72
2022/09/19 10:20:59;;;;;;;6.20;1.83;;;;;;;14.40;100.00;101921.25;4957761;28;20140;-73
2022/09/19 10:23:31;;;;;;;6.57;1.13;;;;;;;14.76;100.00;101928.88;4959568;28;20035;-72
2022/09/19 10:26:14;;;;;;;6.50;1.75;;;;;;;14.61;100.00;101923.59;4938407;28;20042;-71
2022/09/19 10:28:52;;;;;;;4.30;1.23;;;;;;;14.76;100.00;101926.19;4960330;28;20065;-73
2022/09/19 10:31:38;;;;;;;9.43;1.27;;;;;;;14.55;100.00;101929.34;4960089;28;20050;-72
2022/09/19 10:34:30;;;;;;;6.78;1.40;;;;;;;14.48;100.00;101927.06;4960194;28;20420;-70
2022/09/19 10:37:02;;;;;;;3.40;0.90;;;;;;;14.66;100.00;101919.69;4960430;28;20041;-69
2022/09/19 10:39:29;;;;;;;4.20;1.05;;;;;;;14.65;100.00;101928.69;4959829;28;20038;-70
2022/09/19 10:41:54;;;;;;;6.10;1.17;;;;;;;15.08;100.00;101917.88;5057572;28;20044;-71
2022/09/19 10:44:23;;;;;;;3.50;0.80;;;;;;;15.17;100.00;101932.56;5038132;28;20790;-71
2022/09/19 10:46:54;;;;;;;6.45;0.85;;;;;;;15.31;100.00;101918.19;5031268;28;20235;-70
2022/09/19 10:49:38;;;;;;;5.32;1.15;;;;;;;15.31;100.00;101912.81;5058618;28;20057;-70
2022/09/19 10:52:06;;;;;;;7.32;1.45;;;;;;;15.59;100.00;101912.69;5040112;28;20037;-70
2022/09/19 10:54:38;;;;;;;9.65;1.75;;;;;;;15.53;100.00;101905.91;5042466;28;20066;-71
2022/09/19 10:57:40;;;;;;;5.43;1.50;;;;;;;15.76;100.00;101907.09;5040771;28;20037;-71
2022/09/19 11:00:48;;;;;;;6.60;1.40;;;;;;;16.01;100.00;101897.31;5033590;28;20036;-72
2022/09/19 11:03:23;;;;;;;6.05;1.42;;;;;;;16.22;100.00;101903.91;5027085;28;20048;-70
2022/09/19 11:06:18;;;;;;;10.55;1.58;;;;;;;15.78;100.00;101907.84;5041685;28;20044;-71
2022/09/19 11:08:54;;;;;;;2.80;1.15;;;;;;;15.41;100.00;101911.22;5038401;28;20055;-71
2022/09/19 11:11:45;;;;;;;6.30;0.77;;;;;;;15.23;100.00;101919.56;5041458;28;20444;-71
2022/09/19 11:14:31;;;;;;;5.28;1.10;;;;;;;15.35;100.00;101912.50;5042840;28;20113;-70
2022/09/19 11:17:02;;;;;;;2.88;1.08;;;;;;;15.29;100.00;101919.16;5055098;28;20701;-71
2022/09/19 11:20:16;;;;;;;8.20;2.05;;;;;;;15.05;96.54;101927.94;5042374;28;20044;-71
2022/09/19 11:22:50;;;;;;;8.20;1.15;;;;;;;15.16;97.07;101925.44;5055727;28;20724;-71
2022/09/19 11:25:42;;;;;;;1.70;1.33;;;;;;;15.08;97.60;101925.09;5059510;28;20803;-70
2022/09/19 11:28:19;;;;;;;6.93;1.00;;;;;;;15.86;98.27;101914.50;5040540;28;20573;-68
2022/09/19 11:31:05;;;;;;;8.20;0.70;;;;;;;16.51;91.50;101914.44;5031890;28;20056;-68
2022/09/19 11:33:56;;;;;;;3.47;0.90;;;;;;;16.62;95.43;101913.66;5052524;28;20036;-70
2022/09/19 11:37:45;;;;;;;3.17;0.80;;;;;;;16.58;91.26;101904.94;5047728;28;20131;-69
2022/09/19 11:40:42;;;;;;;4.97;1.02;;;;;;;16.44;90.52;101910.47;5037862;28;20048;-69
2022/09/19 11:43:12;;;;;;;3.10;0.95;;;;;;;16.82;88.08;101905.06;5057504;28;20032;-68
2022/09/19 11:46:08;;;;;;;3.45;0.77;;;;;;;16.92;86.51;101913.31;5040922;28;20121;-70
2022/09/19 11:48:58;;;;;;;15.63;1.58;;;;;;;16.71;82.22;101911.19;5038207;28;20033;-71
2022/09/19 11:51:29;;;;;;;5.10;1.23;;;;;;;16.45;85.05;101917.56;5034641;28;20640;-69
2022/09/19 11:54:06;;;;;;;4.35;1.35;;;;;;;16.16;81.44;101915.06;5041853;28;20032;-70
2022/09/19 11:56:51;;;;;;;7.50;0.90;;;;;;;15.87;89.54;101917.13;5038514;28;20046;-68
2022/09/19 11:59:52;;;;;;;7.20;0.85;;;;;;;15.84;83.14;101908.38;5039409;28;20028;-69
2022/09/19 12:02:20;;;;;;;4.47;1.00;;;;;;;16.51;81.04;101907.19;5038187;28;20044;-69